Date,TemperatureHighF,TemperatureAvgF,TemperatureLowF,DewpointHighF,DewpointAvgF,DewpointLowF,HumidityHigh,HumidityAvg,HumidityLow,PressureMaxIn,PressureMinIn,WindSpeedMaxMPH,WindSpeedAvgMPH,GustSpeedMaxMPH,PrecipitationSumIn
2012-1-1,48.2,40.5,32.5,43.7,37.2,31.2,97,88,70,30.08,29.60,18,3,18,0.10
2012-1-2,45.5,36.5,28.4,45.5,26.6,16.7,100,69,44,29.72,29.53,27,5,27,0.00
2012-1-3,28.5,20.3,9.5,16.8,7.3,-1.9,65,57,49,30.03,29.71,22,6,22,0.00
2012-1-4,22.4,17.7,5.8,6.3,2.6,-3.0,67,51,39,30.14,29.91,16,4,25,0.00
2012-1-5,31.7,25.4,19.8,21.5,13.5,5.4,68,60,53,29.94,29.76,26,4,26,0.00
2012-1-6,45.9,33.1,20.9,31.7,23.5,12.0,79,68,54,29.94,29.71,13,0,13,0.00
2012-1-7,56.0,42.9,31.2,34.4,30.5,25.7,82,63,44,29.89,29.64,16,2,25,0.00
2012-1-8,39.2,34.2,25.8,26.9,21.5,14.7,71,60,49,30.27,29.89,22,4,22,0.00
2012-1-9,39.0,28.4,21.2,18.9,14.2,10.5,74,56,33,30.30,29.97,13,1,13,0.00
2012-1-10,41.4,32.7,25.5,27.8,24.1,18.6,86,71,58,29.97,29.77,20,3,20,0.00
2012-1-11,36.4,30.2,26.5,26.5,23.0,21.1,82,74,59,30.11,29.95,7,2,7,0.00
2012-1-12,33.0,31.7,30.5,32.2,30.1,26.5,97,94,82,30.04,29.48,18,4,18,0.36
2012-1-13,40.4,30.5,24.9,39.0,25.9,15.7,98,84,64,29.59,29.18,34,5,34,0.27
2012-1-14,28.2,23.5,12.6,18.4,11.3,-1.3,73,60,42,30.02,29.59,25,7,25,0.00
2012-1-15,13.0,7.9,2.4,2.4,-3.0,-6.0,70,61,49,30.52,30.02,22,7,22,0.00
2012-1-16,27.3,14.8,4.8,11.8,0.3,-5.5,68,53,37,30.60,30.30,15,2,15,0.00
2012-1-17,42.7,37.5,32.0,42.2,34.9,29.7,98,90,81,29.97,29.45,21,2,21,0.47
2012-1-18,45.5,30.6,15.9,43.7,17.8,3.0,98,59,46,30.15,29.44,33,9,33,0.01
2012-1-19,26.0,19.0,9.4,21.3,9.3,0.0,90,66,53,30.29,29.96,16,2,16,0.00
2012-1-20,25.8,22.1,15.9,23.1,12.9,3.8,92,69,49,30.29,29.92,25,3,25,0.00
2012-1-21,17.0,15.3,11.8,14.7,9.3,3.7,92,77,58,30.36,30.11,14,2,14,0.00
2012-1-22,25.6,19.0,10.6,18.7,11.4,3.5,81,72,64,30.58,30.35,11,2,11,0.00
2012-1-23,45.2,31.2,24.6,44.7,27.7,18.4,98,87,77,30.51,29.85,10,1,10,0.36
2012-1-24,49.7,44.4,35.3,46.9,39.7,26.4,99,84,69,30.05,29.84,19,4,19,0.04
2012-1-25,36.7,33.4,31.0,27.4,25.5,24.6,79,73,66,30.22,30.04,25,5,25,0.00
2012-1-26,37.8,32.9,29.3,30.4,28.2,25.3,95,83,71,30.21,29.95,9,1,9,0.14
2012-1-27,38.7,34.7,31.2,38.2,33.5,29.9,98,95,79,29.95,29.29,35,4,35,0.58
2012-1-28,42.4,36.5,31.2,30.7,28.4,25.9,84,73,58,30.00,29.64,24,3,30,0.00
2012-1-29,36.9,33.0,29.4,30.3,17.7,14.5,80,54,40,30.08,29.88,28,5,28,0.00
2012-1-30,33.4,29.2,22.5,24.9,16.6,11.5,79,60,42,30.29,29.93,31,5,31,0.00
2012-1-31,43.9,32.4,23.0,27.4,22.2,16.9,77,66,52,30.29,30.00,4,0,4,0.00
2012-2-1,54.5,42.4,31.0,43.2,33.7,24.5,84,71,56,30.01,29.76,24,4,24,0.02
2012-2-2,38.5,33.8,29.2,30.5,27.5,26.0,89,78,68,30.18,29.96,14,2,14,0.00
2012-2-3,34.5,30.0,23.8,26.4,19.0,9.5,89,66,39,30.39,30.18,19,3,19,0.00
2012-2-4,39.4,32.2,24.8,24.3,19.3,9.5,80,59,47,30.27,30.10,22,4,22,0.00
2012-2-5,32.9,25.2,18.0,13.4,9.7,6.2,66,52,36,30.17,30.07,12,2,12,0.00
2012-2-6,46.0,34.5,22.1,24.2,20.0,12.5,73,56,38,30.09,29.86,25,5,25,0.00
2012-2-7,41.2,35.2,26.6,27.2,22.8,15.4,77,60,50,30.23,29.86,12,3,20,0.00
2012-2-8,34.9,27.3,16.6,15.4,11.0,6.2,82,52,32,30.32,30.06,7,1,12,0.00
2012-2-9,41.9,32.9,26.5,17.6,13.5,10.2,60,45,31,30.11,29.98,19,4,19,0.00
2012-2-10,45.7,36.0,27.3,27.5,19.4,13.4,74,52,36,30.10,29.87,9,2,16,0.00
2012-2-11,36.4,32.2,24.2,26.5,22.1,13.0,86,67,54,29.87,29.54,20,3,20,0.01
2012-2-12,24.1,17.4,11.4,13.0,1.7,-3.6,62,50,42,29.90,29.57,34,8,34,0.00
2012-2-13,37.1,25.8,12.6,18.8,13.1,-0.8,78,59,42,29.98,29.81,32,4,32,0.00
2012-2-14,40.1,32.3,22.8,19.2,14.1,10.6,71,48,32,30.10,29.98,14,1,14,0.00
2012-2-15,42.7,36.9,31.5,34.2,29.8,19.2,90,76,60,30.24,30.08,13,1,13,0.00
2012-2-16,43.4,35.2,28.8,32.8,28.9,24.3,94,78,58,30.28,30.02,13,1,13,0.16
2012-2-17,44.9,38.2,31.0,39.5,30.4,20.4,97,75,51,30.02,29.85,18,3,18,0.07
2012-2-18,42.1,34.9,29.2,25.9,22.8,19.6,79,62,42,30.00,29.84,22,4,22,0.00
2012-2-19,40.6,33.4,27.1,26.6,19.8,14.9,80,58,40,30.05,29.96,16,3,16,0.00
2012-2-20,36.5,29.0,22.5,15.2,12.1,8.4,70,50,33,30.31,29.99,24,5,24,0.00
2012-2-21,40.0,31.4,20.6,32.6,19.1,11.9,88,62,39,30.34,29.84,9,2,15,0.00
2012-2-22,52.1,42.0,34.2,36.9,30.8,25.3,90,67,39,29.84,29.52,18,2,18,0.00
2012-2-23,48.2,41.3,31.9,42.2,32.3,22.5,94,72,47,29.79,29.35,25,4,25,0.02
2012-2-24,35.9,33.0,30.3,35.1,29.1,22.5,97,86,67,29.80,29.24,17,3,17,0.67
2012-2-25,38.3,33.3,27.7,33.1,23.9,16.8,97,69,51,29.82,29.23,43,11,43,0.01
2012-2-26,35.3,28.2,22.0,16.8,7.5,3.1,63,43,26,30.44,29.82,28,7,28,0.00
2012-2-27,48.2,34.5,20.4,32.0,22.3,10.5,78,61,46,30.45,30.01,20,2,20,0.00
2012-2-28,42.9,36.9,29.6,31.4,20.8,14.8,74,53,38,30.39,30.03,30,6,30,0.00
2012-2-29,33.5,30.0,28.6,29.0,21.2,13.8,95,72,47,30.38,29.89,10,2,10,0.00
2012-3-1,32.3,27.9,20.5,31.5,26.5,17.5,97,94,88,30.02,29.73,15,6,15,0.01
2012-3-2,29.2,24.7,19.9,25.8,22.1,17.7,93,89,82,30.16,29.95,12,2,12,0.01
2012-3-3,41.2,34.5,27.6,40.4,32.8,25.8,98,94,72,29.95,29.37,17,2,17,0.29
2012-3-4,40.4,33.5,28.2,26.9,22.0,17.1,80,63,46,29.67,29.52,18,2,18,0.08
2012-3-5,30.9,25.8,18.9,17.1,10.3,3.4,67,52,34,30.32,29.65,28,7,28,0.00
2012-3-6,34.4,24.0,13.1,14.8,6.3,2.3,66,48,26,30.59,30.32,16,3,16,0.00
2012-3-7,55.6,41.7,25.2,36.4,28.1,14.4,80,60,38,30.57,30.22,19,2,19,0.03
2012-3-8,63.5,53.7,44.5,48.0,44.2,36.5,86,71,52,30.23,29.67,25,5,25,0.00
2012-3-9,57.1,37.1,30.0,49.0,24.5,16.6,87,62,38,30.15,29.66,32,6,32,0.14
2012-3-10,34.4,29.1,24.9,21.3,17.3,13.0,72,61,50,30.52,30.13,23,4,23,0.00
2012-3-11,53.4,39.9,24.9,29.5,22.3,17.5,75,52,33,30.50,30.26,18,2,18,0.00
2012-3-12,67.7,51.9,33.3,35.7,30.3,26.6,81,47,23,30.28,30.10,15,2,15,0.00
2012-3-13,68.4,56.3,45.6,54.2,46.5,35.0,96,71,51,30.10,29.85,17,1,17,0.21
2012-3-14,60.9,50.9,37.2,50.7,39.9,30.7,92,70,32,30.23,29.92,22,4,22,0.00
2012-3-15,45.2,38.9,35.5,36.3,34.5,31.0,93,84,69,30.36,30.22,9,1,9,0.00
2012-3-16,44.3,38.3,32.2,43.2,35.4,29.0,96,89,84,30.34,30.10,9,1,12,0.09
2012-3-17,52.8,47.0,39.4,46.6,41.5,35.7,97,82,67,30.35,30.16,13,1,13,0.00
2012-3-18,72.8,53.4,38.6,50.6,43.2,36.0,93,72,38,30.34,30.13,17,3,17,0.00
2012-3-19,76.5,61.3,49.8,52.8,47.4,43.2,88,64,35,30.24,30.11,14,3,14,0.00
2012-3-20,75.8,59.7,42.2,53.5,47.2,38.9,93,67,39,30.31,30.21,14,1,14,0.00
2012-3-21,73.0,62.1,54.4,59.7,55.3,52.7,98,80,56,30.35,30.22,16,3,16,0.00
2012-3-22,77.8,65.3,55.3,58.0,53.9,50.6,94,70,41,30.23,30.00,19,4,19,0.00
2012-3-23,72.0,63.9,57.5,52.8,40.6,28.5,76,46,23,30.12,29.97,17,3,17,0.00
2012-3-24,58.4,52.9,47.1,32.4,26.2,18.6,53,36,26,30.13,30.02,11,2,11,0.00
2012-3-25,47.0,42.6,39.5,39.2,34.3,27.5,90,73,52,30.03,29.70,6,1,6,0.04
2012-3-26,44.6,38.1,27.8,41.7,23.8,4.5,92,60,31,30.00,29.62,32,8,32,0.01
2012-3-27,43.8,33.0,22.4,4.9,1.0,-4.4,41,27,13,30.20,29.99,29,8,29,0.00
2012-3-28,50.9,42.0,34.2,42.3,25.8,-0.1,83,56,22,30.15,29.55,13,1,13,0.05
2012-3-29,48.5,42.6,36.5,43.3,33.6,27.0,82,71,57,29.93,29.51,23,6,23,0.02
2012-3-30,47.6,39.7,30.1,27.0,18.1,8.8,76,45,22,30.03,29.93,21,4,21,0.00
2012-3-31,41.7,36.5,30.8,32.9,28.1,13.3,92,73,33,30.03,29.87,10,2,10,0.03
2012-4-1,49.9,39.7,30.6,37.3,32.8,27.9,93,78,49,29.89,29.61,12,2,12,0.18
2012-4-2,49.2,41.3,35.9,36.8,25.6,11.7,92,59,27,29.82,29.57,23,6,23,0.01
2012-4-3,54.2,42.7,30.3,25.4,13.2,8.8,50,32,18,29.85,29.73,25,5,25,0.00
2012-4-4,58.4,47.4,36.1,34.6,24.2,15.9,82,43,23,29.73,29.46,29,5,29,0.01
2012-4-5,47.4,39.6,31.4,31.5,25.5,19.8,82,59,40,29.90,29.65,21,5,21,0.00
2012-4-6,49.1,39.7,30.3,23.4,20.1,15.2,67,47,29,29.99,29.88,19,4,20,0.00
2012-4-7,52.9,42.5,32.3,24.9,19.5,15.3,53,40,29,30.00,29.90,21,5,23,0.00
2012-4-8,53.3,44.3,37.9,26.9,23.8,21.3,55,44,34,29.98,29.60,20,4,22,0.00
2012-4-9,53.7,46.1,40.9,32.6,29.4,23.7,68,53,40,29.62,29.48,30,8,32,0.00
2012-4-10,57.5,47.9,37.3,28.3,24.5,20.4,61,41,24,29.75,29.59,26,4,27,0.00
2012-4-11,53.2,45.0,38.7,36.6,30.2,26.0,88,57,38,29.88,29.72,17,3,17,0.06
2012-4-12,52.8,44.1,38.9,38.9,36.1,33.8,89,74,49,30.08,29.85,18,3,18,0.09
2012-4-13,61.2,49.4,37.7,34.2,29.0,22.2,84,50,23,30.15,30.02,21,4,21,0.00
2012-4-14,67.8,55.6,42.6,33.2,26.3,22.2,45,34,19,30.15,29.97,18,4,18,0.00
2012-4-15,54.1,51.4,48.9,44.0,37.7,32.6,73,60,45,29.98,29.94,6,0,6,0.00
2012-4-16,88.8,79.3,62.9,58.8,52.9,47.9,74,43,26,29.97,29.86,19,2,19,0.02
2012-4-17,78.2,67.5,55.0,55.5,39.1,24.4,76,40,16,30.13,29.84,19,6,25,0.00
2012-4-18,61.7,53.1,43.9,39.0,30.9,24.8,74,44,30,30.23,30.10,17,3,19,0.00
2012-4-19,71.0,56.0,41.1,41.9,36.7,28.3,85,54,21,30.11,29.94,14,2,15,0.00
2012-4-20,75.4,60.1,46.0,49.5,43.5,39.2,84,58,30,29.99,29.87,18,3,18,0.00
2012-4-21,76.8,62.2,53.2,56.0,52.2,44.1,94,72,45,29.87,29.67,20,2,20,0.00
2012-4-22,59.0,48.3,39.5,56.1,45.9,38.5,96,91,85,29.79,29.63,17,4,17,0.92
2012-4-23,63.4,47.4,38.8,59.4,44.7,37.8,99,91,74,29.63,29.27,17,4,17,1.07
2012-4-24,52.3,45.9,40.6,42.0,35.1,30.1,87,67,44,29.68,29.35,18,2,18,0.01
2012-4-25,57.8,46.1,34.4,36.8,33.1,28.5,92,63,35,29.87,29.67,22,2,22,0.00
2012-4-26,60.9,48.3,35.3,49.1,35.5,27.9,94,63,36,29.95,29.53,12,2,13,0.01
2012-4-27,51.5,45.0,35.3,50.4,33.5,21.9,96,65,44,30.01,29.49,31,8,31,0.04
2012-4-28,55.3,43.7,32.5,24.1,19.9,14.7,65,41,21,30.13,30.00,25,4,25,0.00
2012-4-29,55.9,45.8,33.0,23.8,16.6,7.1,62,33,17,30.21,30.00,25,4,26,0.00
2012-4-30,61.1,48.4,33.8,30.2,21.4,13.1,55,35,22,30.33,30.19,12,1,12,0.00
2012-5-1,49.2,44.5,41.5,45.9,40.5,30.2,97,87,48,30.20,30.02,10,2,10,0.57
2012-5-2,50.1,45.1,41.1,45.0,42.5,40.3,98,91,81,30.22,30.12,5,1,7,0.00
2012-5-3,50.6,47.2,43.9,49.0,46.0,42.1,100,96,90,30.19,30.09,5,0,5,0.16
2012-5-4,64.5,53.3,47.6,59.8,52.0,46.8,99,96,83,30.09,29.88,11,1,11,0.02
2012-5-5,62.7,54.8,49.4,57.7,52.7,47.7,100,93,80,30.08,29.91,6,0,6,0.02
2012-5-6,63.9,54.4,47.2,51.9,48.7,44.5,97,82,61,30.11,30.03,7,0,7,0.00
2012-5-7,71.2,56.2,41.4,51.2,44.8,39.8,97,69,35,30.13,30.04,14,1,14,0.00
2012-5-8,54.4,51.1,46.1,53.0,46.7,40.2,97,85,65,30.08,29.86,13,1,14,0.33
2012-5-9,60.5,57.5,53.8,60.2,57.0,53.0,100,98,97,29.86,29.56,9,0,14,0.22
2012-5-10,63.7,53.8,44.9,57.1,47.3,37.9,99,80,51,29.70,29.40,24,4,24,0.50
2012-5-11,63.2,52.3,42.5,38.8,36.3,32.9,82,57,35,30.05,29.70,18,4,26,0.00
2012-5-12,77.0,60.6,43.6,47.4,37.7,29.0,73,46,24,30.17,30.05,21,3,21,0.00
2012-5-13,82.9,67.9,54.2,52.8,46.9,42.4,70,49,25,30.15,30.03,7,1,14,0.00
2012-5-14,70.7,62.2,56.7,61.3,54.9,49.3,86,77,63,30.15,30.06,9,0,9,0.06
2012-5-15,69.3,60.6,56.5,59.0,55.5,50.1,100,84,55,30.14,29.94,14,1,14,0.54
2012-5-16,72.5,63.3,59.4,65.4,61.4,58.8,99,94,76,29.94,29.78,14,0,14,0.01
2012-5-17,69.4,58.4,47.2,61.0,43.0,35.9,95,60,32,30.14,29.86,18,2,18,0.00
2012-5-18,72.3,58.7,43.9,47.0,41.3,35.6,85,55,34,30.25,30.14,11,0,11,0.00
2012-5-19,79.6,63.6,47.8,52.5,44.5,33.9,74,52,33,30.19,30.10,10,0,10,0.00
2012-5-20,82.7,67.5,55.6,56.2,49.2,43.0,82,54,34,30.28,30.15,10,0,10,0.00
2012-5-21,66.0,58.3,49.4,60.5,53.0,42.2,98,83,60,30.26,30.05,3,0,3,0.08
2012-5-22,61.2,59.0,57.2,61.2,58.8,56.9,100,99,98,30.05,29.81,9,0,9,0.56
2012-5-23,75.2,64.8,58.6,67.2,62.5,58.6,100,93,71,30.04,29.83,6,0,6,0.01
2012-5-24,77.5,66.4,58.6,66.3,61.5,57.8,99,85,64,30.23,30.04,5,0,12,0.00
2012-5-25,73.3,64.2,58.2,67.5,61.8,56.8,98,92,81,30.25,30.10,13,0,13,0.02
2012-5-26,82.5,72.9,66.2,71.6,64.9,54.1,96,78,53,30.10,30.02,14,2,14,0.00
2012-5-27,82.4,72.0,63.8,61.4,54.9,49.7,82,56,39,30.16,30.00,10,0,10,0.00
2012-5-28,82.0,70.0,60.8,67.2,61.9,55.3,95,77,54,30.01,29.89,9,0,9,0.00
2012-5-29,84.2,72.4,64.3,74.7,66.7,62.0,96,83,65,29.91,29.67,35,0,35,0.49
2012-5-30,74.0,67.8,63.0,66.4,63.5,58.9,99,87,62,29.75,29.67,13,0,13,0.02
2012-5-31,78.7,68.4,61.1,60.0,54.1,49.7,90,62,38,29.91,29.70,15,2,15,0.00
2012-6-1,70.8,61.6,54.6,53.3,48.0,45.1,74,61,47,30.06,29.91,11,0,11,0.00
2012-6-2,61.7,55.9,50.1,61.7,54.3,46.3,100,95,71,29.98,29.67,16,1,16,1.53
2012-6-3,68.2,57.9,51.6,58.7,53.5,48.2,99,86,64,29.71,29.63,15,2,15,0.04
2012-6-4,51.7,48.4,46.5,48.7,47.0,45.7,97,95,87,29.82,29.61,12,1,12,0.34
2012-6-5,57.2,50.5,46.6,51.5,48.1,45.8,98,92,77,29.95,29.79,12,1,12,0.03
2012-6-6,64.4,54.6,48.3,55.8,52.0,46.4,99,91,70,29.99,29.93,10,0,10,0.46
2012-6-7,70.2,57.5,47.8,57.6,52.8,46.8,99,86,56,29.98,29.90,15,0,15,0.19
2012-6-8,79.0,64.6,52.2,60.9,55.1,51.1,99,74,43,29.93,29.75,14,1,14,0.00
2012-6-9,73.4,64.1,55.4,60.2,55.2,50.8,92,74,54,29.94,29.78,14,2,14,0.06
2012-6-10,81.5,68.3,57.0,58.9,54.0,48.5,86,63,39,30.21,29.94,10,0,10,0.00
2012-6-11,73.8,63.2,54.7,59.2,53.6,48.2,88,72,55,30.29,30.20,12,0,12,0.00
2012-6-12,73.0,62.7,55.5,61.6,57.3,50.4,96,83,66,30.20,29.95,14,1,14,0.11
2012-6-13,67.8,62.8,60.5,64.9,61.6,59.4,99,96,90,30.06,29.89,5,0,9,0.43
2012-6-14,73.7,63.3,55.0,60.8,56.1,49.1,97,79,54,30.27,30.06,10,0,10,0.00
2012-6-15,73.1,62.4,51.2,55.1,50.4,46.2,92,67,46,30.33,30.25,11,0,11,0.00
2012-6-16,72.8,60.9,51.1,58.9,52.7,48.5,93,76,57,30.35,30.27,8,0,8,0.00
2012-6-17,72.7,59.9,49.5,57.5,51.2,45.8,93,74,53,30.28,30.09,8,0,8,0.00
2012-6-18,70.1,60.3,53.6,56.5,51.9,48.5,87,75,56,30.16,30.09,7,0,7,0.00
2012-6-19,72.0,62.5,53.6,63.9,57.7,50.1,93,85,75,30.16,30.03,14,0,14,0.00
2012-6-20,92.4,78.5,62.8,76.7,69.6,60.4,98,76,55,30.03,29.86,16,2,16,0.00
2012-6-21,92.4,82.1,73.2,73.9,69.0,65.5,84,66,47,29.87,29.72,14,2,14,0.00
2012-6-22,91.2,78.0,67.1,73.1,68.0,63.2,97,73,49,29.78,29.68,34,1,34,0.99
2012-6-23,85.8,69.7,60.7,67.9,62.2,53.4,97,79,42,29.93,29.75,28,1,28,0.23
2012-6-24,81.3,69.3,57.8,61.5,56.6,51.4,88,67,39,29.97,29.85,15,2,15,0.00
2012-6-25,69.4,63.2,59.3,64.5,59.7,56.7,98,89,76,29.86,29.63,13,1,13,0.66
2012-6-26,68.3,60.0,54.2,57.5,54.2,51.0,91,81,66,29.65,29.58,18,3,18,0.01
2012-6-27,74.9,64.3,56.3,58.5,54.3,50.5,82,71,50,29.74,29.57,22,3,22,0.00
2012-6-28,82.3,69.8,58.1,60.9,56.2,52.6,83,64,38,29.76,29.69,17,2,17,0.00
2012-6-29,89.2,75.0,63.5,73.1,62.5,49.1,93,68,36,29.70,29.54,16,1,16,0.02
2012-6-30,87.1,74.8,63.0,64.4,58.5,51.8,78,59,37,29.73,29.63,20,2,20,0.00
2012-7-1,86.3,75.4,67.6,69.4,64.0,60.2,87,69,49,29.82,29.72,13,1,13,0.00
2012-7-2,81.8,71.6,64.0,64.4,60.4,57.9,87,69,49,29.88,29.81,13,1,13,0.00
2012-7-3,83.8,72.3,63.1,61.3,57.4,52.9,84,62,37,29.93,29.83,16,1,16,0.00
2012-7-4,85.3,74.2,65.6,71.5,66.8,61.0,98,79,57,29.84,29.67,13,1,13,0.08
2012-7-5,81.2,74.0,65.9,69.1,64.6,60.6,91,73,55,29.86,29.65,14,1,14,0.00
2012-7-6,85.3,73.6,63.4,68.2,63.3,59.5,88,72,49,29.91,29.82,11,0,11,0.00
2012-7-7,80.8,73.9,68.9,70.3,65.9,63.3,85,77,60,29.83,29.72,13,2,13,0.00
2012-7-8,85.6,75.2,66.4,67.2,62.7,55.1,87,67,43,29.87,29.76,16,1,16,0.00
2012-7-9,81.0,70.0,59.3,58.0,53.8,49.5,80,58,39,29.97,29.86,12,1,12,0.00
2012-7-10,82.4,70.2,57.1,59.7,51.4,43.8,82,53,30,30.08,29.96,12,0,12,0.00
2012-7-11,85.7,72.9,60.9,64.1,58.3,54.8,87,63,37,30.16,30.07,7,0,7,0.00
2012-7-17,91.9,84.6,75.6,71.6,68.7,66.6,75,60,47,29.72,29.65,16,1,16,0.00
2012-7-18,92.6,79.7,72.4,74.8,70.3,67.1,91,74,54,29.86,29.67,19,1,19,0.01
2012-7-19,82.7,72.8,65.8,69.8,57.0,51.4,92,58,44,30.00,29.85,12,0,12,0.00
2012-7-20,69.5,66.2,58.7,58.8,56.3,51.5,86,71,63,30.08,29.97,5,0,5,0.00
2012-7-21,80.7,66.6,53.4,57.9,54.2,50.4,98,69,38,30.11,30.05,10,0,10,0.00
2012-7-22,84.7,70.4,57.8,62.7,58.0,53.6,90,67,43,30.13,30.07,14,1,14,0.00
2012-7-23,85.3,71.8,64.5,69.9,64.6,56.8,92,79,55,30.08,29.75,8,1,13,0.00
2012-7-24,86.3,73.2,64.9,71.9,67.2,53.8,100,82,54,29.75,29.53,19,2,19,0.24
2012-7-25,82.0,68.8,59.0,57.9,54.4,50.0,79,62,36,29.83,29.70,17,2,17,0.00
2012-7-26,81.1,71.3,63.9,71.3,63.6,54.1,94,77,64,29.78,29.57,12,0,14,0.01
2012-7-27,76.4,70.6,66.4,70.7,67.4,64.3,95,90,80,29.90,29.60,13,1,13,0.05
2012-7-28,83.3,68.8,63.9,70.2,65.3,63.2,99,90,59,29.97,29.89,11,0,11,1.75
2012-7-29,69.8,65.1,60.6,66.5,63.7,58.5,100,95,84,30.08,29.92,7,0,7,0.02
2012-7-30,82.2,68.2,56.6,67.7,61.4,55.8,99,81,57,30.12,30.06,8,0,8,0.00
2012-7-31,77.4,67.4,59.8,65.5,62.1,59.0,99,84,61,30.10,29.89,12,0,12,0.00
2012-8-1,78.8,70.2,62.9,71.2,66.6,60.8,97,89,71,29.91,29.83,10,0,10,0.06
2012-8-2,86.9,75.2,67.2,72.3,68.2,66.2,99,81,52,29.89,29.82,11,1,11,0.00
2012-8-3,88.9,77.4,67.4,72.3,69.2,66.2,99,78,49,30.08,29.89,11,1,11,0.00
2012-8-4,90.8,78.5,69.9,76.1,71.3,65.2,99,80,57,30.21,30.07,9,0,11,0.00
2012-8-5,87.8,76.1,71.0,74.9,71.7,68.6,99,87,62,30.19,29.91,16,1,16,0.21
2012-8-6,79.0,72.1,63.6,71.1,63.4,56.5,98,76,49,29.98,29.91,17,2,17,0.00
2012-8-7,82.5,70.5,59.3,66.3,60.5,55.7,90,72,51,30.01,29.94,9,0,9,0.00
2012-8-8,86.2,72.9,62.0,69.5,64.3,56.2,98,77,40,29.99,29.93,9,0,9,0.00
2012-8-9,87.5,75.7,68.3,72.2,69.1,65.9,97,82,53,29.95,29.86,10,0,10,0.00
2012-8-10,80.0,72.2,68.1,71.9,69.5,67.4,99,92,74,29.91,29.76,13,0,13,1.42
2012-8-11,80.3,72.5,66.5,76.3,71.3,66.2,100,96,84,29.90,29.80,10,0,10,0.31
2012-8-12,79.4,73.1,66.9,74.2,71.0,66.0,100,93,76,29.91,29.84,13,0,13,0.30
2012-8-13,81.3,71.4,63.9,68.6,64.4,61.4,97,80,58,29.95,29.89,15,1,15,0.00
2012-8-14,77.8,69.8,63.1,67.6,63.3,60.2,92,81,57,29.95,29.90,11,1,11,0.00
2012-8-15,80.0,70.3,63.2,70.6,66.9,62.3,99,90,67,29.92,29.83,12,0,12,0.48
2012-8-16,81.3,70.1,63.1,68.6,63.2,59.7,100,81,51,29.86,29.80,8,1,14,0.99
2012-8-17,83.4,72.3,61.5,69.8,64.1,57.6,94,76,58,29.85,29.75,15,1,15,0.25
2012-8-18,76.7,66.8,60.8,65.7,60.4,52.2,96,81,58,29.91,29.80,11,1,11,0.08
2012-8-19,72.3,64.9,58.0,60.7,54.8,48.6,83,70,58,29.96,29.88,6,0,6,0.00
2012-8-20,77.7,66.6,55.0,61.1,57.1,52.2,98,74,50,29.92,29.83,7,0,7,0.00
2012-8-21,78.5,68.5,62.1,60.6,58.3,53.1,89,72,45,30.08,29.88,13,1,13,0.00
2012-8-22,81.5,68.6,56.2,61.1,56.8,52.2,97,69,42,30.15,30.07,9,0,9,0.00
2012-8-23,83.7,71.2,62.0,67.2,61.8,58.9,92,74,48,30.14,30.07,10,1,10,0.00
2012-8-24,83.3,72.5,64.9,67.4,63.2,60.1,90,74,50,30.19,30.10,8,0,8,0.00
2012-8-25,80.8,69.9,62.2,66.4,62.5,56.7,99,79,54,30.32,30.19,9,0,9,0.00
2012-8-26,80.6,67.9,58.3,63.7,59.4,56.3,99,77,50,30.34,30.22,6,0,6,0.00
2012-8-27,82.1,69.6,58.5,69.8,63.7,55.5,99,83,61,30.22,29.91,12,1,12,0.00
2012-8-28,80.3,71.6,65.1,70.1,67.0,59.0,98,86,61,29.91,29.71,17,1,17,0.38
2012-8-29,73.9,63.7,55.4,59.0,51.4,45.9,85,66,44,29.99,29.87,13,1,13,0.00
2012-8-30,76.1,65.8,57.0,58.1,52.8,48.9,77,64,45,30.05,29.94,21,2,21,0.00
2012-8-31,83.3,73.2,61.7,62.1,56.9,51.7,71,57,45,29.98,29.80,13,3,22,0.00
2012-9-1,81.0,71.7,62.2,66.6,61.1,53.9,82,69,58,30.10,29.84,6,0,6,0.00
2012-9-2,75.7,65.3,57.8,63.9,57.7,54.2,93,77,61,30.14,30.03,8,0,8,0.00
2012-9-3,75.0,64.6,57.5,61.9,58.0,54.2,99,81,56,30.23,30.13,9,0,9,0.00
2012-9-4,70.9,66.1,60.5,70.9,64.4,54.9,100,94,79,30.15,29.85,6,0,6,0.56
2012-9-5,77.6,71.9,66.4,72.7,69.6,64.9,100,93,74,29.85,29.72,15,1,15,0.89
2012-9-6,77.3,68.3,61.2,69.8,65.3,60.3,99,91,71,29.91,29.82,10,0,10,0.00
2012-9-7,82.3,72.1,64.3,73.1,67.9,63.2,100,88,62,29.92,29.84,7,0,7,0.00
2012-9-8,78.0,71.0,60.4,71.6,67.9,58.6,98,90,70,29.88,29.59,19,1,19,0.34
2012-9-9,71.5,62.4,57.6,58.8,56.3,51.5,95,82,58,29.85,29.70,15,1,15,0.02
2012-9-10,63.7,58.0,50.8,52.3,47.5,42.4,82,69,53,30.07,29.83,16,2,16,0.00
2012-9-11,68.0,55.8,46.1,50.9,45.3,40.8,85,69,47,30.27,30.07,13,1,13,0.00
2012-9-12,74.8,61.8,49.5,58.5,51.3,44.9,88,70,41,30.35,30.26,9,0,9,0.00
2012-9-13,77.5,64.8,53.5,61.3,57.2,52.0,98,79,51,30.36,30.25,11,1,11,0.00
2012-9-14,78.7,66.6,58.8,64.4,60.3,57.5,96,82,58,30.25,30.05,10,1,10,0.00
2012-9-15,67.4,61.4,51.0,61.5,52.8,45.2,96,75,54,30.06,29.99,17,2,17,0.06
2012-9-16,66.4,55.7,47.8,49.5,46.3,43.1,94,73,43,30.09,30.00,14,1,14,0.00
2012-9-17,71.3,58.2,46.0,58.0,50.3,42.7,92,77,52,30.11,30.02,9,0,9,0.00
2012-9-18,69.7,62.4,54.2,68.5,60.6,52.3,98,94,85,30.04,29.65,27,2,27,1.06
2012-9-19,66.8,59.8,52.0,65.9,50.2,40.3,99,72,45,30.19,29.67,19,2,19,0.08
2012-9-20,62.9,53.8,45.8,50.1,44.1,38.9,88,70,55,30.27,30.15,7,0,7,0.00
2012-9-21,63.6,53.4,45.9,53.7,48.4,43.7,97,84,61,30.17,30.04,7,0,7,0.00
2012-9-22,51.9,51.5,51.4,51.1,50.3,49.7,97,96,94,30.04,29.99,3,0,3,0.00
2012-9-26,67.8,66.0,57.0,60.7,59.7,53.5,88,80,77,30.05,30.00,10,0,10,0.00
2012-9-27,67.6,62.6,50.0,59.6,53.6,44.5,89,73,55,30.24,29.99,12,1,12,0.00
2012-9-28,53.2,51.4,48.3,52.9,50.0,46.2,99,95,85,30.24,29.97,7,0,7,1.00
2012-9-29,53.9,51.9,49.7,53.6,51.5,49.4,100,99,98,29.97,29.88,10,0,10,0.03
2012-9-30,59.5,53.0,47.6,55.5,51.6,46.2,99,95,83,29.91,29.72,12,0,12,0.02
2012-10-1,62.8,53.3,45.8,54.4,49.6,44.5,97,88,73,29.96,29.71,27,2,27,0.00
2012-10-2,64.5,57.6,51.0,58.9,54.9,49.9,98,91,75,30.04,29.94,10,0,10,0.14
2012-10-3,58.2,58.2,58.2,57.6,57.6,57.6,98,98,98,30.15,30.02,0,0,0,0.00
2012-10-4,61.3,59.0,58.2,61.3,58.7,57.6,100,99,98,30.16,30.02,6,0,6,0.02
2012-10-5,71.5,62.1,54.9,61.3,58.3,54.9,100,89,63,30.03,29.91,13,1,13,0.01
2012-10-6,73.1,59.6,48.2,62.8,54.8,41.9,99,85,65,29.92,29.69,24,2,24,0.02
2012-10-7,53.2,47.6,40.4,46.0,41.4,36.7,92,79,65,30.08,29.92,13,1,13,0.01
2012-10-8,53.9,46.1,38.3,45.7,41.8,37.0,97,86,64,30.31,30.06,11,1,11,0.00
2012-10-9,51.5,47.9,44.8,48.9,45.8,42.9,96,92,88,30.30,30.14,4,0,5,0.00
2012-10-10,58.9,51.2,46.5,58.8,50.1,42.5,100,96,79,30.14,29.73,20,1,20,0.01
2012-10-11,48.7,43.1,39.5,43.0,38.8,35.6,87,85,79,30.13,29.83,15,2,19,0.00
2012-10-12,47.6,41.2,33.6,39.7,33.1,23.0,92,74,50,30.38,30.01,17,2,17,0.01
2012-10-13,48.4,38.8,29.8,32.5,26.1,22.4,78,61,39,30.48,30.31,13,1,13,0.00
2012-10-14,63.1,51.3,41.3,53.8,46.4,32.5,96,84,68,30.31,29.93,14,1,14,0.00
2012-10-15,70.4,61.8,56.0,61.0,57.6,52.9,98,87,71,29.93,29.59,15,1,15,0.09
2012-10-16,56.9,47.8,37.6,55.8,39.1,34.1,96,73,56,29.89,29.56,27,4,27,0.00
2012-10-17,58.6,45.0,33.5,40.8,35.6,30.3,91,72,41,30.00,29.89,11,0,11,0.00
2012-10-18,62.6,50.9,39.4,48.8,43.3,36.0,98,77,52,30.11,30.00,10,0,10,0.00
2012-10-19,64.1,57.2,50.4,63.9,56.4,48.8,100,97,89,30.06,29.71,17,1,17,0.10
2012-10-20,69.7,62.8,51.9,63.8,55.5,41.0,100,79,44,29.75,29.59,19,1,19,0.02
2012-10-21,58.2,51.0,41.4,42.0,40.0,36.8,88,67,50,29.90,29.75,22,3,22,0.00
2012-10-22,60.6,53.7,45.7,44.0,42.0,39.6,84,65,49,30.01,29.88,25,4,25,0.00
2012-10-23,61.2,54.0,46.7,46.0,43.0,39.2,77,67,53,30.10,30.00,12,1,12,0.00
2012-10-24,52.6,49.0,46.4,47.1,38.4,30.9,82,67,49,30.22,30.10,4,0,4,0.00
2012-10-25,59.0,50.2,41.6,42.8,38.9,33.8,89,67,41,30.30,30.22,6,0,6,0.00
2012-10-26,62.8,53.3,47.3,53.9,45.9,40.3,78,76,72,30.26,30.10,8,0,8,0.00
2012-10-27,62.2,58.5,51.6,53.9,52.3,44.6,94,80,73,30.12,29.98,5,0,5,0.00
2012-10-28,51.5,49.2,46.6,49.4,46.7,43.9,98,91,80,30.01,29.75,14,3,14,0.00
2012-10-29,60.2,54.1,46.6,59.9,53.6,46.1,99,98,98,29.75,29.11,23,9,32,0.00
2012-10-30,59.9,56.3,55.6,59.5,55.5,54.8,99,97,97,29.53,29.24,21,3,21,0.00
2012-10-31,55.6,52.5,44.2,54.8,50.3,38.8,97,92,78,29.57,29.44,2,1,2,0.00
2012-11-1,52.6,45.4,38.4,41.7,38.9,35.2,92,78,64,29.56,29.49,0,0,0,0.00
2012-11-2,47.9,44.1,40.3,40.2,37.0,33.5,92,76,64,29.63,29.53,0,0,0,0.11
2012-11-3,48.1,41.8,37.5,36.4,33.1,29.3,81,71,61,29.82,29.62,0,0,0,0.00
2012-11-4,47.6,39.8,35.3,35.3,31.5,29.0,81,72,61,29.94,29.82,15,1,15,3.24
2012-11-5,37.8,33.8,28.3,29.3,22.2,17.3,76,62,53,30.15,29.94,17,3,17,9.26
2012-11-6,38.1,30.6,24.2,20.5,17.0,14.4,77,58,40,30.24,30.15,10,1,10,0.00
2012-11-7,32.0,29.3,26.2,26.5,22.5,18.4,95,76,58,30.17,29.76,23,7,23,0.00
2012-11-8,35.2,32.6,27.7,34.2,31.3,26.5,97,95,83,29.79,29.65,30,10,30,0.28
2012-11-9,48.5,39.4,33.5,30.6,25.1,20.5,83,59,34,30.12,29.78,24,6,24,0.00
2012-11-10,50.0,41.3,34.4,34.2,30.7,26.8,88,67,47,30.46,30.11,14,1,14,0.00
2012-11-11,59.6,48.7,38.4,44.5,40.5,30.5,88,74,55,30.50,30.41,15,1,15,0.00
2012-11-12,63.6,54.8,45.0,56.6,48.7,39.9,95,80,66,30.46,30.20,18,2,18,0.00
2012-11-13,60.9,46.1,34.7,59.3,42.0,26.3,96,86,72,30.43,30.09,27,3,27,0.35
2012-11-14,41.7,36.0,32.2,27.9,24.7,21.8,76,64,51,30.55,30.42,13,2,13,0.00
2012-11-15,39.6,33.2,28.7,27.7,24.8,21.9,87,71,58,30.47,30.31,13,2,13,0.00
2012-11-16,44.7,36.4,29.0,28.8,25.8,22.6,89,66,52,30.44,30.28,10,1,10,0.00
2012-11-17,45.0,37.7,29.5,30.6,27.6,23.5,88,68,54,30.67,30.43,10,1,10,0.00
2012-11-18,43.7,35.2,28.7,31.9,27.5,20.7,92,74,59,30.73,30.61,9,1,9,0.00
2012-11-19,43.4,35.4,30.7,33.1,28.0,21.9,92,75,66,30.62,30.27,10,1,10,0.00
2012-11-20,46.2,37.9,30.3,33.4,29.2,25.4,94,72,50,30.27,30.14,7,1,7,0.00
2012-11-21,46.4,40.3,35.8,36.8,30.0,23.6,86,67,54,30.27,30.16,10,2,10,0.00
2012-11-22,52.2,42.3,35.6,40.5,36.2,32.6,96,79,59,30.27,30.12,8,0,10,0.00
2012-11-23,53.7,43.5,34.6,42.0,38.2,32.3,96,82,57,30.12,29.62,14,1,14,0.00
2012-11-24,44.7,37.2,28.9,42.0,24.3,15.3,91,61,43,29.67,29.55,33,8,33,0.01
2012-11-25,33.6,29.6,26.1,21.2,18.0,15.1,76,62,54,29.88,29.67,30,5,30,0.00
2012-11-26,41.3,35.4,27.6,25.0,22.0,20.1,77,59,44,30.23,29.87,26,4,26,0.00
2012-11-27,39.2,39.2,39.2,21.2,21.2,21.2,48,48,48,30.27,30.17,4,4,4,0.00
2012-11-28,39.2,35.6,29.3,27.5,24.1,12.1,87,64,48,30.20,30.07,11,2,11,0.05
2012-11-29,39.1,36.1,32.2,26.7,24.4,21.9,77,63,50,30.27,30.12,17,2,17,0.01
2012-11-30,38.5,38.5,38.5,22.0,22.0,22.0,51,51,51,30.49,30.20,3,3,3,0.00
2012-12-1,38.5,38.5,38.5,22.0,22.0,22.0,51,51,51,30.56,30.44,3,3,3,0.00
2012-12-2,48.4,43.0,37.9,47.5,34.1,21.4,99,73,51,30.44,30.02,10,4,10,0.00
2012-12-3,53.2,50.5,48.3,46.1,44.0,42.3,92,79,67,30.27,30.01,19,4,19,0.00
2012-12-4,52.2,52.2,52.2,42.3,42.3,42.3,69,69,69,30.28,29.94,1,1,1,0.00
2012-12-5,52.2,49.5,42.6,42.3,38.8,29.7,69,67,60,30.13,29.82,12,4,12,0.00
2012-12-6,42.6,37.2,24.2,29.7,21.5,12.3,71,53,44,30.33,30.12,13,5,13,0.00
2012-12-7,40.2,38.6,34.7,32.4,25.6,17.6,81,61,45,30.29,30.01,12,0,12,0.00
2012-12-8,40.2,40.2,40.2,31.9,31.9,31.9,72,72,72,30.02,29.82,0,0,0,0.00
2012-12-9,40.2,40.2,40.2,31.9,31.9,31.9,72,72,72,30.25,29.93,0,0,0,0.00
2012-12-10,40.2,40.2,40.2,31.9,31.9,31.9,72,72,72,30.09,29.47,0,0,0,0.00
2012-12-11,41.4,40.3,39.8,35.5,30.8,25.5,82,69,55,29.93,29.51,22,3,22,0.00